Whittier, AK (99693)

6:28 AM AKDT on May 29, 2017 (GMT -0800)
Portage Glacier | | Change Station

Elev 95 ft 60.79 °N, 148.83 °W | Updated 35 minutes ago

Mostly Cloudy
Mostly Cloudy
40 °F
Feels Like 34 °F
N
9
Wind Variable Wind from SSE
Gusts 18 mph

Today
High -- | Low -- °F
--% Chance of Precip.
Yesterday
High -- | Low -- °F
Precip. -- in
Pressure 29.89 in
Visibility 9.0 miles
Clouds Overcast 4100 ft
Windchill 34 °F
Dew Point 36 °F
Humidity 86%
Rainfall 0.13 in
Snow Depth Not available.
4:40 AM 11:05 PM
Waxing Crescent, 20% visible
METAR PATO 291353Z AUTO 15008G16KT 120V200 9SM -RA OVC041 04/02 A2989 RMK AO2 SLP122 P0000 T00440022 TSNO $
Pressure 29.89 in
Visibility 9.0 miles
Clouds Overcast 4100 ft
Windchill 34 °F
Dew Point 36 °F
Humidity 86%
Rainfall 0.13 in
Snow Depth Not available.
4:40 AM 11:05 PM
Waxing Crescent, 20% visible
METAR PATO 291353Z AUTO 15008G16KT 120V200 9SM -RA OVC041 04/02 A2989 RMK AO2 SLP122 P0000 T00440022 TSNO $

Get Severe Weather Alerts

Thanks for signing up!

Be on the lookout for a verification email in your inbox.

You'll start receiving the daily forecast at 6 AM.

×

10-Day Weather Forecast

Almanac

Astronomy

May. 29, 2017 Rise Set
Actual Time
Civil Twilight
Nautical Twilight
Astronomical Twilight
Moon
Length of Visible Light
Length of Day
Tomorrow will be .
, % of the Moon is Illuminated

Today's Extremes

State Highs State Lows

Community

WunderPhotos

Category 6

Welcome to Category 6. This is the collective home for Weather Underground's featured writeups by Dr. Jeff Masters (right), Bob Henson (left), Chris Burt, and other regular contributors.

Nearby

Air Quality

  Air Quality AQ Index Pollutant
Not available.

Snow Depth

Station Depth Elevation

Earthquake Activity

City Distance Mag. Time & Date
Minimum magnitude displayed is 2.5.

Coastal Water Temperatures

Place Temperature

Stations

Nearby Weather Stations

Station Location Temp. Windchill Dew Point Humidity Wind Precip. Elev Updated Type
                   

Watches & Warnings

There are currently no watches in effect.